Wednesday, January 28, 2015
18:13 UTC
  |  Log In   |  Register Free
Airport Search:

Faribault Municipal Airport
(KFBL)

Faribault Municipal Airport Diagram
No Airport Diagram Available

FAA data valid effective January 08, 2015 - March 05, 2015 (unless otherwise noted).

 
 
 
 
 
 
 
 
 
 
 
 
 
 

Current Aviation Weather for Faribault Municipal Airport (KFBL)

The most recent METAR observation for KFBL was updated at: 1809
METAR Summary (Translated METAR)
KFBL
281754Z AUTO 14009KT 3SM BR OVC007 M01/M02 A2992 RMK AO2
KOWA
281755Z AUTO 14014KT 3SM BR OVC006 M01/M02 A2989 RMK AO2
(12.5 nm SE from KFBL)
KSYN
281645Z AUTO 14010KT 4SM OVC006 M02/M04 A2995 RMK AO2
(15.5 nm NE from KFBL)
TAF
No TAF information found within 50 nm of KFBL
  Airport Weather Conditions for KFBL

 Current Weather at FBL
28° F
Fog/Mist
Southeast winds at 15.0 mph
FBL NOAA Radar

Pressure: 29.94 in
Humidity: 93%
Wind: Southeast at 15.0 MPH (13 KT)
Dew Point: 26.6°F
Visibility: 3.00 mi


Airport Weather Forecast for KFBL

Translated METAR and TAF for KFBL
Translated METAR for KFBL (1813 UTC 28 January 2015)
found at http://aviationweather.gov/adds/metars/
 
METAR text: KFBL 281754Z AUTO 14009KT 3SM BR OVC007 M01/M02 A2992 RMK AO2
Conditions at: KFBL (FARIBAULT MUNI , MN, US) observed 1754 UTC 28 January 2015
Temperature: -1.0°C (30°F)
Dewpoint: -2.0°C (28°F) [RH = 93%]
Pressure (altimeter): 29.92 inches Hg (1013.3 mb)
Winds: from the SE (140 degrees) at 10 MPH (9 knots; 4.7 m/s)
Visibility: 3 miles (5 km)
Ceiling: 700 feet AGL
Clouds: overcast cloud deck at 700 feet AGL
Weather: BR  (mist)
Translated TAF for KFBL

There is no translated TAF available for this airport

Find All Airport Services Find A Hotel Find A Rental Car Find A Golf Course Find A Restaurant $100 Hamburger



FBO's on the Field
FBO Company Facility Photos Services Transportation Aviation Fuel Prices: Prices include tax
Catering Weather Repair Courtesy Rental Type 100LL JetA JetA+ MOGAS 8087
 
Quality Aviation

This FBO has not yet been rated
FS:Independent
Last Updated: Jan-27
Login to update fuel prices
SS:
Contact Quality AviationMore FBO Information
 
Add another FBO Facility Photos Catering Weather Repair Courtesy Rental Type 100LL JetA JetA+ MOGAS 8087
Services Transportation Aviation Fuel Prices: Prices include tax


model-print
model-print
model-print
model-print